Time;durP1;ratioP1;P1;durP2;ratioP2;P2;SDS_P1;SDS_P2;PMS_P1;PMS_P2;Temp;Humidity;BMP_temperature;BMP_pressure;BME280_temperature;BME280_humidity;BME280_pressure;Samples;Min_cycle;Max_cycle;Signal;HPM_P1;HPM_P2
2021/11/16 00:01:59;;;;;;;51.47;31.53;;;7.10;99.90;6.90;97640.00;;;;5044595;28;21122;-73
2021/11/16 00:04:50;;;;;;;51.63;31.30;;;7.00;99.90;7.00;97639.00;;;;5045595;28;20207;-75
2021/11/16 00:07:39;;;;;;;49.33;29.37;;;7.00;99.90;7.10;97634.00;;;;5031332;28;21146;-75
2021/11/16 00:10:28;;;;;;;53.37;28.60;;;7.00;99.90;7.00;97641.00;;;;5041004;28;20193;-75
2021/11/16 00:13:16;;;;;;;45.80;27.77;;;7.00;99.90;7.00;97640.00;;;;5037069;28;20231;-76
2021/11/16 00:16:07;;;;;;;41.53;27.53;;;7.00;99.90;7.00;97647.00;;;;5043893;28;20192;-75
2021/11/16 00:18:59;;;;;;;52.13;29.33;;;7.00;99.90;7.10;97639.00;;;;5032227;28;20217;-75
2021/11/16 00:21:49;;;;;;;39.87;25.83;;;7.00;99.90;7.00;97636.00;;;;5044153;28;20229;-75
2021/11/16 00:24:41;;;;;;;42.27;23.70;;;7.00;99.90;7.00;97631.00;;;;5044865;28;20242;-75
2021/11/16 00:27:31;;;;;;;47.23;26.27;;;7.00;99.90;7.00;97642.00;;;;5044193;28;20200;-73
2021/11/16 00:30:20;;;;;;;36.73;26.33;;;7.00;99.90;7.00;97630.00;;;;5038876;28;20208;-75
2021/11/16 00:33:11;;;;;;;43.77;27.77;;;7.00;99.90;6.90;97641.00;;;;5036797;28;20199;-76
2021/11/16 00:36:00;;;;;;;38.17;22.80;;;7.00;99.90;7.00;97632.00;;;;5044825;28;20219;-74
2021/11/16 00:38:49;;;;;;;37.73;23.70;;;7.00;99.90;7.00;97624.00;;;;5044831;28;20670;-75
2021/11/16 00:41:38;;;;;;;35.37;25.53;;;7.80;99.90;6.90;97631.00;;;;5045956;28;20460;-74
2021/11/16 00:44:27;;;;;;;38.43;25.40;;;7.00;99.90;6.90;97625.00;;;;5044580;28;20219;-76
2021/11/16 00:47:16;;;;;;;36.80;22.53;;;7.00;99.90;7.00;97630.00;;;;5044519;28;20201;-75
2021/11/16 00:50:08;;;;;;;37.00;24.77;;;6.90;99.90;7.00;97620.00;;;;5036697;28;20201;-76
2021/11/16 00:52:58;;;;;;;47.20;26.40;;;7.00;99.90;7.00;97624.00;;;;5043106;28;20207;-75
2021/11/16 00:55:48;;;;;;;39.83;24.23;;;7.00;99.90;7.00;97635.00;;;;5044344;28;20212;-76
2021/11/16 00:58:38;;;;;;;42.70;27.30;;;7.00;99.90;7.00;97627.00;;;;5044356;28;20471;-76
2021/11/16 01:01:27;;;;;;;34.03;23.97;;;7.00;99.90;7.00;97633.00;;;;5039661;28;20236;-76
2021/11/16 01:04:16;;;;;;;41.07;26.87;;;7.00;99.90;7.00;97625.00;;;;5037686;28;20219;-75
2021/11/16 01:07:07;;;;;;;40.63;24.67;;;7.40;99.90;7.10;97637.00;;;;5043817;28;20616;-75
2021/11/16 01:09:56;;;;;;;38.37;23.53;;;7.00;99.90;7.10;97637.00;;;;5044190;28;20192;-76
2021/11/16 01:12:45;;;;;;;38.13;25.20;;;7.00;99.90;7.00;97632.00;;;;5044200;28;20217;-74
2021/11/16 01:15:37;;;;;;;40.37;25.03;;;7.00;99.90;7.00;97639.00;;;;5043669;28;20209;-75
2021/11/16 01:18:28;;;;;;;38.77;25.53;;;7.00;99.90;7.00;97633.00;;;;5044511;28;20235;-75
2021/11/16 01:21:17;;;;;;;41.70;26.20;;;7.00;99.90;6.90;97637.00;;;;5043517;28;20224;-75
2021/11/16 01:24:09;;;;;;;39.07;24.13;;;7.00;99.90;6.90;97647.00;;;;5043787;28;20695;-75
2021/11/16 01:26:58;;;;;;;37.83;23.97;;;7.00;99.90;6.90;97639.00;;;;5043169;28;20678;-75
2021/11/16 01:29:49;;;;;;;46.77;26.73;;;7.00;99.90;6.90;97637.00;;;;5042817;28;20231;-74
2021/11/16 01:32:41;;;;;;;35.63;21.40;;;6.90;99.90;6.80;97644.00;;;;5042150;28;20216;-73
2021/11/16 01:35:30;;;;;;;37.30;22.50;;;6.90;99.90;6.80;97636.00;;;;5036518;28;20239;-73
2021/11/16 01:38:20;;;;;;;37.13;21.53;;;6.90;99.90;6.80;97631.00;;;;5044025;28;20689;-73
2021/11/16 01:41:14;;;;;;;38.40;23.97;;;6.90;99.90;6.90;97641.00;;;;5036705;28;20756;-75
2021/11/16 01:44:03;;;;;;;37.17;22.70;;;6.90;99.90;7.00;97632.00;;;;5031887;28;20205;-75
2021/11/16 01:46:52;;;;;;;38.73;23.60;;;6.90;99.90;7.00;97626.00;;;;5041182;28;20200;-74
2021/11/16 01:49:42;;;;;;;37.63;21.87;;;6.90;99.90;7.00;97629.00;;;;5032783;28;20215;-74
2021/11/16 01:52:31;;;;;;;38.77;23.83;;;6.90;99.90;7.00;97629.00;;;;5043692;28;20217;-74
2021/11/16 01:55:23;;;;;;;38.40;23.73;;;6.90;99.90;6.90;97625.00;;;;5044654;28;20436;-73
2021/11/16 01:58:13;;;;;;;35.67;22.13;;;6.90;99.90;7.00;97622.00;;;;5042598;28;20229;-75
2021/11/16 02:01:03;;;;;;;39.17;23.10;;;6.90;99.90;6.90;97629.00;;;;5043915;28;20224;-73
2021/11/16 02:03:52;;;;;;;38.70;23.57;;;6.90;99.90;6.80;97632.00;;;;5044061;28;20283;-73
2021/11/16 02:06:43;;;;;;;45.77;24.80;;;6.90;99.90;6.80;97619.00;;;;5043871;28;20193;-75
2021/11/16 02:09:31;;;;;;;38.53;23.03;;;6.90;99.90;6.80;97620.00;;;;5043713;28;20209;-75
2021/11/16 02:12:20;;;;;;;41.13;23.47;;;6.80;99.90;6.80;97605.00;;;;5042903;28;20228;-73
2021/11/16 02:15:12;;;;;;;39.43;24.80;;;6.80;99.90;6.80;97607.00;;;;5044601;28;20205;-76
2021/11/16 02:18:00;;;;;;;45.80;25.50;;;6.80;99.90;6.70;97605.00;;;;5044590;28;20215;-74
2021/11/16 02:20:52;;;;;;;41.77;23.37;;;6.80;99.90;6.70;97612.00;;;;5043853;28;20228;-77
2021/11/16 02:23:43;;;;;;;41.67;26.03;;;6.80;99.90;6.60;97605.00;;;;5043194;28;20189;-74
2021/11/16 02:26:32;;;;;;;38.43;23.73;;;6.70;99.90;6.50;97604.00;;;;5044488;28;20215;-75
2021/11/16 02:29:21;;;;;;;41.80;24.77;;;6.70;99.90;6.50;97595.00;;;;5045156;28;20197;-76
2021/11/16 02:32:10;;;;;;;44.27;24.93;;;6.70;99.90;6.60;97607.00;;;;5043822;28;20603;-75
2021/11/16 02:35:00;;;;;;;45.57;26.00;;;6.70;99.90;6.50;97603.00;;;;5032473;28;20212;-74
2021/11/16 02:37:50;;;;;;;43.30;25.87;;;6.70;99.90;6.40;97600.00;;;;5044265;28;20205;-75
2021/11/16 02:40:39;;;;;;;39.20;25.60;;;5.50;99.90;6.40;97601.00;;;;5044205;28;20197;-75
2021/11/16 02:43:29;;;;;;;44.13;25.60;;;6.60;99.90;6.60;97602.00;;;;5046559;28;20672;-74
2021/11/16 02:46:18;;;;;;;50.23;26.37;;;6.60;99.90;6.60;97602.00;;;;5048412;28;20592;-73
2021/11/16 02:49:07;;;;;;;55.37;31.33;;;6.60;99.90;6.70;97603.00;;;;5047269;28;20265;-74
2021/11/16 02:51:55;;;;;;;62.23;34.80;;;6.60;99.90;6.60;97589.00;;;;5047518;28;20235;-74
2021/11/16 02:54:46;;;;;;;46.27;27.00;;;6.60;99.90;6.50;97604.00;;;;5048548;28;20208;-75
2021/11/16 02:57:35;;;;;;;37.93;22.87;;;6.60;99.90;6.60;97596.00;;;;5048186;28;20239;-74
2021/11/16 03:00:24;;;;;;;41.73;26.17;;;6.70;99.90;6.60;97584.00;;;;5046847;28;20235;-73
2021/11/16 03:03:13;;;;;;;41.17;24.87;;;6.70;99.90;6.70;97587.00;;;;5049148;28;20224;-76
2021/11/16 03:06:02;;;;;;;39.73;25.20;;;6.70;99.90;6.80;97593.00;;;;5037391;28;20197;-74
2021/11/16 03:08:51;;;;;;;44.83;25.10;;;6.70;99.90;6.80;97590.00;;;;5047061;28;20216;-74
2021/11/16 03:11:41;;;;;;;40.73;24.23;;;6.70;99.90;6.80;97588.00;;;;5048235;28;20224;-77
2021/11/16 03:14:31;;;;;;;42.87;23.43;;;6.70;99.90;6.80;97586.00;;;;5047742;28;20672;-74
2021/11/16 03:17:19;;;;;;;44.07;25.70;;;6.70;99.90;6.80;97581.00;;;;5047820;28;20691;-75
2021/11/16 03:20:12;;;;;;;44.40;25.17;;;6.80;99.90;6.70;97588.00;;;;5046496;28;20217;-74
2021/11/16 03:23:10;;;;;;;40.23;22.93;;;6.70;99.90;6.60;97581.00;;;;5047892;28;20223;-75
2021/11/16 03:26:01;;;;;;;41.00;24.70;;;6.70;99.90;6.50;97583.00;;;;5047056;28;20200;-76
2021/11/16 03:28:52;;;;;;;43.03;23.60;;;6.70;99.90;6.50;97581.00;;;;5047223;28;20200;-73
2021/11/16 03:31:48;;;;;;;43.83;24.93;;;6.60;99.90;6.50;97587.00;;;;5046531;28;20236;-73
2021/11/16 03:34:37;;;;;;;39.73;25.27;;;6.60;99.90;6.50;97579.00;;;;5034312;28;20270;-73
2021/11/16 03:37:37;;;;;;;47.40;27.53;;;6.60;99.90;6.50;97581.00;;;;5047701;28;20718;-74
2021/11/16 03:40:27;;;;;;;38.03;24.13;;;6.60;99.90;6.60;97586.00;;;;5046436;28;20228;-73
2021/11/16 03:43:17;;;;;;;39.63;23.03;;;6.60;99.90;6.60;97586.00;;;;5047817;28;20208;-74
2021/11/16 03:46:07;;;;;;;43.87;25.53;;;6.60;99.90;6.60;97584.00;;;;5041869;28;20577;-75
2021/11/16 03:48:56;;;;;;;43.50;24.07;;;6.60;99.90;6.60;97585.00;;;;5047024;28;20219;-74
2021/11/16 03:51:47;;;;;;;39.27;24.57;;;6.60;99.90;6.60;97575.00;;;;5046860;28;20235;-74
2021/11/16 03:54:36;;;;;;;43.77;23.03;;;6.60;99.90;6.50;97578.00;;;;5047562;28;20205;-73
2021/11/16 03:57:26;;;;;;;47.03;24.60;;;6.60;99.90;6.50;97577.00;;;;5045385;28;20219;-74
2021/11/16 04:00:19;;;;;;;49.97;25.97;;;6.60;99.90;6.50;97574.00;;;;5047703;28;20224;-74
2021/11/16 04:03:10;;;;;;;45.20;25.60;;;6.50;99.90;6.40;97563.00;;;;5047332;28;20574;-74
2021/11/16 04:06:00;;;;;;;47.60;25.43;;;6.60;99.90;6.40;97567.00;;;;5035301;28;20212;-74
2021/11/16 04:08:49;;;;;;;39.13;24.33;;;6.50;99.90;6.50;97575.00;;;;5045914;28;20675;-73
2021/11/16 04:11:38;;;;;;;38.73;25.00;;;6.50;99.90;6.50;97561.00;;;;5045843;28;20225;-73
2021/11/16 04:14:27;;;;;;;45.63;25.17;;;6.50;99.90;6.60;97572.00;;;;5045652;28;20578;-74
2021/11/16 04:17:16;;;;;;;41.83;26.03;;;6.50;99.90;6.60;97570.00;;;;5046997;28;20205;-72
2021/11/16 04:20:13;;;;;;;41.30;22.87;;;6.60;99.90;6.60;97569.00;;;;5046369;28;20229;-74
2021/11/16 04:23:03;;;;;;;43.40;24.93;;;6.60;99.90;6.60;97571.00;;;;5045181;28;20200;-74
2021/11/16 04:25:53;;;;;;;37.70;24.23;;;6.60;99.90;6.60;97575.00;;;;5047244;28;20208;-74
2021/11/16 04:28:42;;;;;;;43.27;26.50;;;6.60;99.90;6.60;97575.00;;;;5047447;28;20201;-74
2021/11/16 04:31:31;;;;;;;48.00;27.13;;;6.50;99.90;6.50;97577.00;;;;5046097;28;20556;-74
2021/11/16 04:34:20;;;;;;;42.73;25.00;;;6.60;99.90;6.50;97571.00;;;;5033075;28;20206;-74
2021/11/16 04:37:10;;;;;;;40.37;25.07;;;6.50;99.90;6.50;97570.00;;;;5046095;28;20585;-73
2021/11/16 04:39:59;;;;;;;41.13;23.83;;;6.60;99.90;6.50;97574.00;;;;5044196;28;20229;-73
2021/11/16 04:42:47;;;;;;;41.60;24.87;;;6.50;99.90;6.50;97584.00;;;;5045590;28;20228;-74
2021/11/16 04:45:40;;;;;;;41.17;25.27;;;6.50;99.90;6.40;97574.00;;;;5044598;28;20672;-74
2021/11/16 04:48:46;;;;;;;42.47;26.93;;;6.50;99.90;6.40;97574.00;;;;5045801;28;20291;-74
2021/11/16 04:51:53;;;;;;;42.37;23.83;;;6.50;99.90;6.30;97583.00;;;;5045683;28;20770;-73
2021/11/16 04:55:06;;;;;;;41.43;25.60;;;6.50;99.90;6.40;97577.00;;;;5044855;28;20208;-74
2021/11/16 05:04:07;;;;;;;40.70;26.50;;;6.40;99.90;6.40;97584.00;;;;5044896;28;20223;-74
2021/11/16 05:06:57;;;;;;;42.80;25.70;;;6.40;99.90;6.30;97578.00;;;;5043238;28;20200;-75
2021/11/16 05:09:50;;;;;;;45.07;25.40;;;6.40;99.90;6.20;97586.00;;;;5045664;28;20216;-73
2021/11/16 05:12:40;;;;;;;47.83;26.93;;;6.40;99.90;6.20;97584.00;;;;5045691;28;20220;-77
2021/11/16 05:15:29;;;;;;;41.10;24.87;;;6.40;99.90;6.30;97584.00;;;;5046084;28;20197;-75
2021/11/16 05:18:18;;;;;;;43.33;25.27;;;6.40;99.90;6.40;97587.00;;;;5045880;28;20208;-75
2021/11/16 05:21:08;;;;;;;39.60;25.80;;;6.40;99.90;6.40;97591.00;;;;5043466;28;20232;-75
2021/11/16 05:24:01;;;;;;;39.60;25.70;;;6.40;99.90;6.30;97592.00;;;;5053270;28;20212;-76
2021/11/16 05:26:52;;;;;;;50.50;26.17;;;6.40;99.90;6.20;97588.00;;;;5045390;28;20223;-73
2021/11/16 05:29:41;;;;;;;44.23;26.63;;;6.40;99.90;6.20;97589.00;;;;5044370;28;20201;-73
2021/11/16 05:32:30;;;;;;;44.20;27.07;;;6.40;99.90;6.20;97591.00;;;;5045272;28;20228;-75
2021/11/16 05:35:18;;;;;;;40.10;24.43;;;6.30;99.90;6.20;97602.00;;;;5037738;28;20215;-78
2021/11/16 05:38:08;;;;;;;42.00;25.17;;;6.30;99.90;6.20;97605.00;;;;5046799;28;20224;-76
2021/11/16 05:40:57;;;;;;;38.80;24.23;;;6.30;99.90;6.20;97606.00;;;;5044298;28;20749;-75
2021/11/16 05:43:48;;;;;;;46.13;25.70;;;6.30;99.90;6.30;97610.00;;;;5044420;28;20630;-76
2021/11/16 05:46:38;;;;;;;44.97;25.80;;;6.30;99.90;6.30;97609.00;;;;5034395;28;20582;-76
2021/11/16 05:49:31;;;;;;;44.77;26.63;;;6.30;99.90;6.30;97599.00;;;;5044473;28;20201;-76
2021/11/16 05:52:20;;;;;;;43.03;26.17;;;6.30;99.90;6.30;97605.00;;;;5043360;28;20235;-76
2021/11/16 05:55:10;;;;;;;41.43;23.50;;;6.40;99.90;6.10;97612.00;;;;5044636;28;20201;-76
2021/11/16 05:58:00;;;;;;;41.00;25.90;;;6.40;99.90;6.10;97599.00;;;;5034389;28;20200;-75
2021/11/16 06:00:51;;;;;;;45.23;25.00;;;6.40;99.90;6.10;97616.00;;;;5044061;28;20239;-75
2021/11/16 06:03:39;;;;;;;49.17;27.17;;;6.30;99.90;6.10;97611.00;;;;5045075;28;20290;-76
2021/11/16 06:06:31;;;;;;;40.90;24.87;;;6.30;99.90;6.10;97624.00;;;;5045388;28;20193;-74
2021/11/16 06:09:20;;;;;;;39.03;24.80;;;6.30;99.90;6.10;97621.00;;;;5033171;28;20212;-77
2021/11/16 06:12:09;;;;;;;42.17;25.30;;;6.30;99.90;6.10;97613.00;;;;5043535;28;20714;-75
2021/11/16 06:14:59;;;;;;;45.57;26.67;;;6.30;99.90;6.20;97622.00;;;;5044196;28;20205;-76
2021/11/16 06:17:49;;;;;;;42.77;25.23;;;6.30;99.90;6.20;97617.00;;;;5047304;28;20208;-77
2021/11/16 06:20:40;;;;;;;44.30;24.97;;;6.30;99.90;6.10;97613.00;;;;5047421;28;20228;-75
2021/11/16 06:23:29;;;;;;;41.23;25.90;;;6.30;99.90;6.00;97617.00;;;;5047826;28;20201;-75
2021/11/16 06:26:18;;;;;;;43.10;25.03;;;6.30;99.90;6.00;97622.00;;;;5047261;28;20200;-76
2021/11/16 06:29:08;;;;;;;43.30;26.83;;;6.30;99.90;6.10;97625.00;;;;5039579;28;20200;-75
2021/11/16 06:31:57;;;;;;;38.93;25.33;;;6.20;99.90;6.20;97621.00;;;;5042070;28;20699;-76
2021/11/16 06:34:47;;;;;;;42.57;25.23;;;6.30;99.90;6.30;97623.00;;;;5045758;28;20192;-75
2021/11/16 06:37:36;;;;;;;44.57;25.83;;;6.30;99.90;6.30;97628.00;;;;5037297;28;20567;-76
2021/11/16 06:40:26;;;;;;;45.87;24.23;;;6.30;99.90;6.30;97621.00;;;;5044206;28;20220;-75
2021/11/16 06:43:22;;;;;;;41.30;24.67;;;6.30;99.90;6.30;97639.00;;;;5049174;28;20215;-75
2021/11/16 06:46:11;;;;;;;40.73;24.53;;;6.30;99.90;6.40;97625.00;;;;5047149;28;20200;-77
2021/11/16 06:49:00;;;;;;;39.40;24.43;;;6.40;99.90;6.40;97636.00;;;;5050082;28;20215;-75
2021/11/16 06:51:54;;;;;;;37.43;23.77;;;6.40;99.90;6.30;97639.00;;;;5048125;28;20228;-76
2021/11/16 06:54:43;;;;;;;38.27;23.97;;;6.40;99.90;6.40;97638.00;;;;5044681;28;20212;-75
2021/11/16 06:57:33;;;;;;;40.90;25.20;;;6.40;99.90;6.40;97632.00;;;;5048091;28;20217;-76
2021/11/16 07:00:22;;;;;;;42.13;25.20;;;6.40;99.90;6.30;97635.00;;;;5047616;28;20212;-75
2021/11/16 07:03:11;;;;;;;34.40;23.47;;;6.40;99.90;6.40;97631.00;;;;5040571;28;20213;-75
2021/11/16 07:06:03;;;;;;;42.13;25.77;;;6.40;99.90;6.30;97637.00;;;;5040203;28;20216;-77
2021/11/16 07:08:56;;;;;;;44.20;25.67;;;6.40;99.90;6.30;97631.00;;;;5046713;28;20197;-78
2021/11/16 07:11:47;;;;;;;39.40;25.17;;;6.40;99.90;6.30;97639.00;;;;5032771;28;20751;-75
2021/11/16 07:14:38;;;;;;;47.63;26.33;;;6.40;99.90;6.20;97631.00;;;;5049347;28;20219;-75
2021/11/16 07:17:27;;;;;;;41.90;25.13;;;6.50;99.90;6.30;97640.00;;;;5046930;28;20211;-75
2021/11/16 07:20:17;;;;;;;38.60;24.53;;;6.40;99.90;6.40;97644.00;;;;5048353;28;20205;-74
2021/11/16 07:23:12;;;;;;;42.47;25.83;;;6.40;99.90;6.60;97646.00;;;;5047142;28;20204;-78
2021/11/16 07:26:13;;;;;;;40.97;25.93;;;6.50;99.90;6.50;97649.00;;;;5047341;28;20200;-78
2021/11/16 07:29:02;;;;;;;41.33;25.17;;;6.50;99.90;6.60;97652.00;;;;5045180;28;20784;-74
2021/11/16 07:31:57;;;;;;;39.00;24.73;;;6.50;99.90;6.70;97653.00;;;;5047343;28;20247;-74
2021/11/16 07:34:48;;;;;;;40.80;25.70;;;6.60;99.90;6.80;97658.00;;;;5032356;28;20211;-75
2021/11/16 07:37:40;;;;;;;37.80;23.40;;;6.60;99.90;6.80;97652.00;;;;5041884;28;20208;-75
2021/11/16 07:40:32;;;;;;;35.50;24.30;;;6.70;99.90;6.80;97652.00;;;;5041871;28;20201;-73
2021/11/16 07:43:23;;;;;;;46.77;26.43;;;6.70;99.90;6.80;97659.00;;;;5037460;28;20200;-75
2021/11/16 07:46:12;;;;;;;34.67;22.60;;;6.70;99.90;6.70;97663.00;;;;5043436;28;20201;-75
2021/11/16 07:49:03;;;;;;;40.67;25.13;;;6.80;99.90;6.80;97656.00;;;;5040150;28;20217;-75
2021/11/16 07:51:53;;;;;;;34.17;24.23;;;6.70;99.90;6.80;97658.00;;;;5036633;28;20229;-72
2021/11/16 07:54:42;;;;;;;40.77;24.83;;;6.80;99.90;6.90;97655.00;;;;5038427;28;20201;-74
2021/11/16 07:57:31;;;;;;;39.30;25.03;;;6.80;99.90;6.90;97664.00;;;;5043898;28;20697;-75
2021/11/16 08:00:26;;;;;;;38.80;21.80;;;6.80;99.90;6.90;97662.00;;;;5036776;28;20211;-74
2021/11/16 08:03:20;;;;;;;43.03;23.63;;;6.80;99.90;6.90;97660.00;;;;5044377;28;20197;-75
2021/11/16 08:06:13;;;;;;;43.40;26.93;;;6.80;99.90;6.90;97657.00;;;;5046401;28;20211;-75
2021/11/16 08:09:17;;;;;;;46.87;26.13;;;6.80;99.90;6.80;97655.00;;;;5035708;28;20200;-73
2021/11/16 08:12:20;;;;;;;40.67;25.40;;;6.80;99.90;7.00;97661.00;;;;5047396;28;20711;-75
2021/11/16 08:15:13;;;;;;;39.50;25.57;;;6.80;99.90;7.00;97657.00;;;;5036863;28;20205;-75
2021/11/16 08:18:10;;;;;;;39.67;25.63;;;6.90;99.90;7.10;97657.00;;;;5037827;28;20336;-73
2021/11/16 08:21:01;;;;;;;44.00;25.63;;;6.90;99.90;7.00;97653.00;;;;5037557;28;20224;-77
2021/11/16 08:23:54;;;;;;;42.47;26.80;;;7.00;99.90;7.00;97652.00;;;;5046826;28;20200;-74
2021/11/16 08:26:47;;;;;;;41.93;24.57;;;7.00;99.90;7.10;97653.00;;;;5046386;28;20209;-74
2021/11/16 08:29:40;;;;;;;42.47;26.10;;;7.00;99.90;7.20;97658.00;;;;5045539;28;20213;-75
2021/11/16 08:32:35;;;;;;;43.97;25.53;;;7.10;99.90;7.10;97656.00;;;;5044000;28;20574;-74
2021/11/16 08:35:27;;;;;;;40.47;24.93;;;7.10;99.90;7.20;97661.00;;;;5046516;28;20660;-75
2021/11/16 08:38:17;;;;;;;37.83;24.83;;;7.10;99.90;7.10;97646.00;;;;5033199;28;20295;-75
2021/11/16 08:41:07;;;;;;;41.73;24.50;;;7.60;99.90;7.10;97653.00;;;;5046704;28;20227;-75
2021/11/16 08:44:12;;;;;;;40.63;24.77;;;7.10;99.90;7.00;97650.00;;;;5047215;28;20215;-76
2021/11/16 08:47:12;;;;;;;45.20;25.73;;;7.10;99.90;6.90;97641.00;;;;5046033;28;20208;-74
2021/11/16 08:50:08;;;;;;;35.53;25.43;;;7.10;99.90;6.90;97654.00;;;;5036090;28;20216;-73
2021/11/16 08:53:00;;;;;;;35.97;24.67;;;7.10;99.90;6.90;97654.00;;;;5033728;28;20568;-75
2021/11/16 08:55:50;;;;;;;42.03;26.87;;;7.00;99.90;7.00;97649.00;;;;5045353;28;20703;-78
2021/11/16 08:58:39;;;;;;;38.03;25.40;;;7.10;99.90;7.10;97655.00;;;;5043835;28;20213;-74
2021/11/16 09:01:28;;;;;;;39.23;25.43;;;7.10;99.90;7.20;97639.00;;;;5045934;28;20635;-74
2021/11/16 09:04:25;;;;;;;38.33;27.20;;;7.10;99.90;7.20;97649.00;;;;5032371;28;20213;-75
2021/11/16 09:07:24;;;;;;;41.57;27.10;;;7.10;99.90;7.10;97637.00;;;;5045327;28;20200;-73
2021/11/16 09:10:15;;;;;;;45.67;27.87;;;7.10;99.90;7.20;97647.00;;;;5045961;28;20204;-79
2021/11/16 09:13:08;;;;;;;44.17;28.73;;;7.20;99.90;7.10;97644.00;;;;5035866;28;20216;-73
2021/11/16 09:16:02;;;;;;;47.70;29.13;;;7.20;99.90;7.30;97641.00;;;;5041433;28;20208;-74
2021/11/16 09:18:53;;;;;;;41.37;27.13;;;7.20;99.90;7.30;97640.00;;;;5043439;28;20211;-79
2021/11/16 09:21:42;;;;;;;45.27;28.30;;;7.30;99.90;7.60;97636.00;;;;5041449;28;20500;-78
2021/11/16 09:24:34;;;;;;;42.70;28.20;;;7.40;99.90;7.70;97641.00;;;;5040086;28;20213;-77
2021/11/16 09:27:38;;;;;;;48.73;29.90;;;7.50;99.90;7.70;97636.00;;;;5036267;28;20580;-76
2021/11/16 09:30:33;;;;;;;46.87;27.47;;;7.50;99.90;7.70;97639.00;;;;5046137;28;20207;-74
2021/11/16 09:33:22;;;;;;;50.33;31.30;;;7.60;99.90;7.80;97637.00;;;;5038060;28;20206;-74
2021/11/16 09:36:20;;;;;;;48.23;27.70;;;7.70;99.90;7.90;97636.00;;;;5043264;28;20235;-75
2021/11/16 09:39:11;;;;;;;39.83;26.07;;;7.70;99.90;7.80;97637.00;;;;5044694;28;20208;-75
2021/11/16 09:42:04;;;;;;;44.53;23.97;;;7.80;99.90;7.90;97639.00;;;;5044653;28;20220;-76
2021/11/16 09:44:59;;;;;;;39.43;24.77;;;7.80;99.90;7.80;97641.00;;;;5031403;28;20204;-72
2021/11/16 09:47:51;;;;;;;37.03;23.60;;;7.80;99.90;7.90;97640.00;;;;5044973;28;20266;-75
2021/11/16 09:50:40;;;;;;;40.60;23.50;;;7.80;99.90;8.00;97643.00;;;;5045038;28;20209;-74
2021/11/16 09:53:29;;;;;;;35.27;21.87;;;7.80;99.90;7.90;97638.00;;;;5047669;28;20211;-74
2021/11/16 09:56:24;;;;;;;39.60;22.73;;;7.80;99.90;8.00;97642.00;;;;5038179;28;20212;-74
2021/11/16 09:59:26;;;;;;;34.77;21.87;;;7.80;99.90;8.10;97633.00;;;;5047661;28;20212;-72
2021/11/16 10:02:35;;;;;;;37.90;23.43;;;7.90;99.90;8.10;97639.00;;;;5048235;28;20227;-74
2021/11/16 10:05:26;;;;;;;47.87;32.47;;;7.90;99.90;8.10;97646.00;;;;5044736;28;20208;-75
2021/11/16 10:08:17;;;;;;;36.73;23.40;;;7.90;99.90;8.00;97622.00;;;;5048190;28;20205;-75
2021/11/16 10:11:06;;;;;;;29.93;20.63;;;8.30;99.90;8.10;97614.00;;;;5038009;28;20224;-73
2021/11/16 10:13:55;;;;;;;35.03;21.73;;;7.90;99.90;8.20;97620.00;;;;5048683;28;20205;-74
2021/11/16 10:16:45;;;;;;;35.53;22.20;;;7.90;99.90;8.20;97620.00;;;;5048454;28;20216;-74
2021/11/16 10:19:45;;;;;;;30.50;21.03;;;8.00;99.90;8.10;97610.00;;;;5047786;28;20201;-75
2021/11/16 10:22:33;;;;;;;40.33;24.87;;;7.90;99.90;8.10;97606.00;;;;5048668;28;20240;-75
2021/11/16 10:25:27;;;;;;;34.93;22.40;;;8.00;99.90;8.00;97600.00;;;;5036239;28;20205;-74
2021/11/16 10:28:17;;;;;;;35.10;22.60;;;7.90;99.90;8.00;97600.00;;;;5048278;28;20204;-75
2021/11/16 10:31:07;;;;;;;37.13;22.83;;;7.90;99.90;7.90;97603.00;;;;5047082;28;20327;-75
2021/11/16 10:33:56;;;;;;;36.50;24.33;;;7.90;99.90;7.70;97603.00;;;;5037275;28;20200;-75
2021/11/16 10:37:04;;;;;;;36.13;21.77;;;7.90;99.90;7.70;97594.00;;;;5036926;28;20783;-74
2021/11/16 10:40:09;;;;;;;29.60;20.40;;;7.80;99.90;7.60;97590.00;;;;5034865;28;20199;-75
2021/11/16 10:43:00;;;;;;;34.23;20.97;;;7.70;99.90;7.60;97585.00;;;;5045173;28;20255;-74
2021/11/16 10:45:51;;;;;;;28.77;20.93;;;7.70;99.90;7.60;97588.00;;;;5042343;28;20208;-73
2021/11/16 10:48:41;;;;;;;31.00;19.83;;;7.60;99.90;7.50;97581.00;;;;5036460;28;20197;-74
2021/11/16 10:51:32;;;;;;;31.83;20.80;;;7.60;99.90;7.70;97579.00;;;;5038017;28;20600;-74
2021/11/16 10:54:22;;;;;;;33.77;20.07;;;7.60;99.90;7.80;97579.00;;;;5048090;28;20208;-73
2021/11/16 10:57:11;;;;;;;34.03;21.70;;;7.60;99.90;7.80;97575.00;;;;5047116;28;20220;-72
2021/11/16 11:00:00;;;;;;;33.93;21.47;;;7.60;99.90;7.80;97569.00;;;;5048175;28;20204;-73
2021/11/16 11:03:13;;;;;;;29.80;20.50;;;7.60;99.90;7.80;97559.00;;;;5045820;28;20602;-73
2021/11/16 11:06:08;;;;;;;32.40;20.53;;;7.70;99.90;7.90;97560.00;;;;5043596;28;20201;-72
2021/11/16 11:08:58;;;;;;;32.80;20.53;;;7.70;99.90;8.00;97559.00;;;;5046706;28;20212;-73
2021/11/16 11:11:50;;;;;;;37.50;23.60;;;7.70;99.90;8.00;97544.00;;;;5037748;28;20603;-73
2021/11/16 11:14:39;;;;;;;33.70;20.53;;;7.80;99.90;7.80;97533.00;;;;5034625;28;20205;-75
2021/11/16 11:17:36;;;;;;;29.80;18.57;;;7.80;99.90;7.70;97533.00;;;;5044854;28;20201;-74
2021/11/16 11:20:38;;;;;;;31.00;20.90;;;7.80;99.90;7.80;97529.00;;;;5033933;28;20209;-74
2021/11/16 11:23:30;;;;;;;31.67;20.00;;;7.80;99.90;8.10;97530.00;;;;5046225;28;20216;-74
2021/11/16 11:26:37;;;;;;;31.13;20.77;;;7.80;99.90;8.20;97530.00;;;;5047535;28;20209;-74
2021/11/16 11:29:39;;;;;;;30.07;20.23;;;7.90;99.90;8.40;97522.00;;;;5040974;28;20208;-73
2021/11/16 11:32:31;;;;;;;25.27;18.43;;;8.00;99.90;8.60;97524.00;;;;5041615;28;20227;-74
2021/11/16 11:35:24;;;;;;;30.97;19.37;;;8.10;99.90;8.30;97515.00;;;;5033794;28;20209;-74
2021/11/16 11:38:15;;;;;;;26.03;17.80;;;8.20;99.90;8.10;97499.00;;;;5037219;28;20204;-74
2021/11/16 11:41:05;;;;;;;25.33;17.47;;;8.30;99.90;8.40;97497.00;;;;5046050;28;20714;-73
2021/11/16 11:44:14;;;;;;;24.27;18.87;;;8.20;99.90;8.60;97494.00;;;;5043788;28;20232;-75
2021/11/16 11:47:05;;;;;;;26.17;18.57;;;8.30;99.90;8.20;97493.00;;;;5040892;28;20211;-77
2021/11/16 11:49:57;;;;;;;23.37;16.07;;;8.40;99.90;8.60;97495.00;;;;5047156;28;20196;-77
2021/11/16 11:52:46;;;;;;;26.83;17.50;;;8.40;99.90;8.70;97495.00;;;;5047471;28;20274;-77
2021/11/16 11:55:40;;;;;;;26.27;17.17;;;8.50;99.90;8.90;97488.00;;;;5046291;28;20352;-77
2021/11/16 11:58:32;;;;;;;28.47;19.07;;;8.50;99.90;8.90;97482.00;;;;5046924;28;20212;-76
2021/11/16 12:01:28;;;;;;;30.70;19.10;;;8.60;99.90;8.90;97475.00;;;;5047405;28;20597;-72
2021/11/16 12:04:19;;;;;;;26.80;17.17;;;8.60;99.90;8.70;97475.00;;;;5030726;28;20227;-77
2021/11/16 12:07:08;;;;;;;29.13;20.33;;;8.60;99.90;8.50;97473.00;;;;5028016;28;20205;-74
2021/11/16 12:09:58;;;;;;;28.77;20.00;;;8.60;99.90;8.40;97479.00;;;;5042073;28;20207;-77
2021/11/16 12:12:47;;;;;;;24.93;18.97;;;8.60;99.90;8.40;97472.00;;;;5043387;28;20212;-76
2021/11/16 12:15:44;;;;;;;27.80;18.67;;;8.50;99.90;8.40;97461.00;;;;5035448;28;20216;-76
2021/11/16 12:18:44;;;;;;;31.93;20.83;;;8.50;99.90;8.20;97451.00;;;;5036595;28;20204;-74
2021/11/16 12:21:40;;;;;;;28.00;19.07;;;8.40;99.90;8.20;97448.00;;;;5035306;28;20251;-75
2021/11/16 12:24:33;;;;;;;29.13;19.70;;;8.40;99.90;8.20;97457.00;;;;5037513;28;20298;-75
2021/11/16 12:27:33;;;;;;;26.97;18.80;;;8.40;99.90;8.20;97451.00;;;;5039913;28;20214;-74
2021/11/16 12:30:23;;;;;;;22.77;18.33;;;8.40;99.90;8.30;97438.00;;;;5037131;28;20576;-75
2021/11/16 12:33:12;;;;;;;24.20;17.70;;;8.40;99.90;8.20;97447.00;;;;5046531;28;20624;-77
2021/11/16 12:36:01;;;;;;;24.13;16.53;;;8.30;99.90;8.30;97440.00;;;;5026841;28;20225;-73
2021/11/16 12:38:51;;;;;;;33.63;19.77;;;8.30;99.90;8.30;97433.00;;;;5036071;28;20217;-75
2021/11/16 12:41:43;;;;;;;28.23;20.10;;;8.30;99.90;8.30;97443.00;;;;5035988;28;20729;-74
2021/11/16 12:44:47;;;;;;;27.10;19.73;;;8.30;99.90;8.40;97442.00;;;;5024355;28;20225;-75
2021/11/16 12:47:56;;;;;;;29.10;18.90;;;8.30;99.90;8.40;97446.00;;;;5033584;28;20211;-76
2021/11/16 12:51:09;;;;;;;29.27;21.53;;;8.30;99.90;8.40;97440.00;;;;5042147;28;20679;-75